Friday, August 22, 2014, 1:40 PM EDT

KEZF, Fredericksburg, Shannon Airport

Location: Fredericksburg, VA, United States Lat: 38.267
Local Time: 1:40 PM EDT (17:40 GMT) Lon: -77.45
Time Zone: US/Eastern Elev: 85 ft

Show me the last for .
Show Decoded

2014-08-22 13:15 METAR KEZF 221715Z AUTO 30004KT 10SM SCT050 SCT100 26/21 A2999 RMK AO2 T02610208
                 =
2014-08-22 12:55 METAR KEZF 221655Z AUTO 30003KT 10SM OVC100 26/21 A2999 RMK AO2 T02560206 =
2014-08-22 12:35 METAR KEZF 221635Z AUTO 30003KT 10SM OVC100 26/21 A2999 RMK AO2 T02560205 =
2014-08-22 12:15 METAR KEZF 221615Z AUTO 32003KT 10SM SCT090 BKN110 26/20 A3000 RMK AO2 T02590204
                 =
2014-08-22 11:55 METAR KEZF 221555Z AUTO 03004KT 10SM SCT120 26/20 A2999 RMK AO2 T02600202 =
2014-08-22 11:35 METAR KEZF 221535Z AUTO 00000KT 10SM -DZ CLR 26/21 A2999 RMK AO2 T02620208 =
2014-08-22 11:15 METAR KEZF 221515Z AUTO 00000KT 10SM -RA CLR 26/21 A2999 RMK AO2 T02600205 =
2014-08-22 10:55 METAR KEZF 221455Z AUTO 06004KT 10SM -RA SCT050 SCT100 26/20 A3000 RMK AO2
                 T02620200 =
2014-08-22 10:35 METAR KEZF 221435Z AUTO 02003KT 10SM SCT050 26/20 A3000 RMK AO2 T02600200 =
2014-08-22 10:15 METAR KEZF 221415Z AUTO 04004KT 10SM CLR 26/20 A2999 RMK AO2 T02620200 =
2014-08-22 09:55 METAR KEZF 221355Z AUTO 04005KT 10SM CLR 27/20 A2999 RMK AO2 T02650200 =
2014-08-22 09:35 METAR KEZF 221335Z AUTO 04004KT 10SM CLR 27/20 A2999 RMK AO2 T02650202 =
2014-08-22 09:15 METAR KEZF 221315Z AUTO 03003KT 10SM CLR 27/20 A2999 RMK AO2 T02650203 =
2014-08-22 08:55 METAR KEZF 221255Z AUTO 36003KT 10SM CLR 26/21 A2999 RMK AO2 T02590208 =
2014-08-22 08:35 METAR KEZF 221235Z AUTO 02003KT 10SM CLR 25/21 A2999 RMK AO2 T02500208 =
2014-08-22 08:15 METAR KEZF 221215Z AUTO 00000KT 10SM SCT070 25/22 A2999 RMK AO2 T02460215 =
2014-08-22 07:55 METAR KEZF 221155Z AUTO 00000KT 10SM SCT070 24/22 A3000 RMK AO2 T02360217 10251
                 20218 =
2014-08-22 07:35 METAR KEZF 221135Z AUTO 01003KT 10SM CLR 23/22 A2999 RMK AO2 T02310217 =
2014-08-22 07:15 METAR KEZF 221115Z AUTO 00000KT 10SM CLR 22/22 A2999 RMK AO2 T02210221 =
2014-08-22 06:55 METAR KEZF 221055Z AUTO 00000KT 5SM BR CLR 22/22 A2998 RMK AO2 T02200220 =
2014-08-22 06:35 METAR KEZF 221035Z AUTO 00000KT 7SM CLR 22/22 A2996 RMK AO2 T02210221 =
2014-08-22 06:15 METAR KEZF 221015Z AUTO 00000KT 7SM SCT070 22/22 A2996 RMK AO2 T02240224 =
2014-08-22 05:55 METAR KEZF 220955Z AUTO 00000KT 7SM BKN070 23/23 A2996 RMK AO2 T02250225 =
2014-08-22 05:35 METAR KEZF 220935Z AUTO 00000KT 7SM BKN070 23/23 A2995 RMK AO2 T02280228 =
2014-08-22 05:15 METAR KEZF 220915Z AUTO 00000KT 7SM SCT055 BKN070 23/23 A2995 RMK AO2 T02300230
                 =
2014-08-22 04:55 METAR KEZF 220855Z AUTO 00000KT 5SM BR SCT070 23/23 A2994 RMK AO2 T02300230 =
2014-08-22 04:35 METAR KEZF 220835Z AUTO 00000KT 10SM BKN070 23/23 A2994 RMK AO2 T02320232 =
2014-08-22 04:15 METAR KEZF 220815Z AUTO 00000KT 7SM OVC070 24/24 A2994 RMK AO2 T02350235 =
2014-08-22 03:35 METAR KEZF 220735Z AUTO 00000KT 7SM SCT070 SCT080 24/24 A2996 RMK AO2 T02380238
                 =
2014-08-22 03:15 METAR KEZF 220715Z AUTO 00000KT 10SM BKN070 OVC080 25/24 A2996 RMK AO2 T02450242
                 =
2014-08-22 02:55 METAR KEZF 220655Z AUTO 00000KT 7SM BKN070 OVC080 24/24 A2997 RMK AO2 T02420242
                 =
2014-08-22 02:35 METAR KEZF 220635Z AUTO 00000KT 7SM OVC070 24/24 A2997 RMK AO2 T02420240 =
2014-08-22 02:15 METAR KEZF 220615Z AUTO 00000KT 10SM OVC070 25/24 A2997 RMK AO2 T02510242 =
2014-08-22 01:55 METAR KEZF 220555Z AUTO 00000KT 10SM OVC070 25/24 A2997 RMK AO2 T02480241 10267
                 20246 403160183 =
2014-08-22 01:35 METAR KEZF 220535Z AUTO 00000KT 10SM BKN070 OVC080 25/24 A2997 RMK AO2 T02460241
                 =
2014-08-22 01:15 METAR KEZF 220515Z AUTO 00000KT 10SM OVC075 25/24 A2998 RMK AO2 T02540236 =
2014-08-22 00:55 METAR KEZF 220455Z AUTO 00000KT 10SM OVC075 26/24 A2998 RMK AO2 T02550241 =
2014-08-22 00:35 METAR KEZF 220435Z AUTO 00000KT 10SM OVC075 25/24 A2999 RMK AO2 T02500242 =
2014-08-22 00:15 METAR KEZF 220415Z AUTO 00000KT 10SM BKN080 25/24 A2999 RMK AO2 T02480242 =
2014-08-21 23:55 METAR KEZF 220355Z AUTO 00000KT 10SM SCT110 26/23 A2999 RMK AO2 T02570232 =
2014-08-21 23:35 METAR KEZF 220335Z AUTO 00000KT 10SM OVC110 25/25 A2998 RMK AO2 T02540245 =
2014-08-21 23:15 METAR KEZF 220315Z AUTO 25004KT 10SM SCT080 SCT090 OVC110 26/25 A2998 RMK AO2
                 T02550245 =
2014-08-21 22:55 METAR KEZF 220255Z AUTO 27003KT 10SM SCT080 OVC100 26/25 A2998 RMK AO2 T02550249
                 =
2014-08-21 22:35 METAR KEZF 220235Z AUTO 00000KT 10SM -RA SCT075 OVC100 26/25 A2999 RMK AO2
                 T02560250 =
2014-08-21 22:15 METAR KEZF 220215Z AUTO 00000KT 10SM OVC100 25/25 A2999 RMK AO2 T02530246 =
2014-08-21 21:55 METAR KEZF 220155Z AUTO 00000KT 10SM SCT100 BKN120 25/25 A2999 RMK AO2 T02540247
                 =
2014-08-21 21:35 METAR KEZF 220135Z AUTO 00000KT 10SM BKN110 26/25 A2999 RMK AO2 T02550247 =
2014-08-21 21:15 METAR KEZF 220115Z AUTO 00000KT 10SM CLR 26/25 A2998 RMK AO2 T02550245 =
2014-08-21 20:55 METAR KEZF 220055Z AUTO 00000KT 10SM SCT080 27/24 A2998 RMK AO2 T02660237 =
2014-08-21 20:35 METAR KEZF 220035Z AUTO 00000KT 10SM -DZ SCT080 SCT090 27/24 A2998 RMK AO2
                 T02650236 =
2014-08-21 20:15 METAR KEZF 220015Z AUTO 00000KT 10SM SCT090 SCT110 27/23 A2998 RMK AO2 T02670234
                 =
2014-08-21 19:55 METAR KEZF 212355Z AUTO 00000KT 10SM CLR 26/24 A2998 RMK AO2 T02640237 10316
                 20264 =
2014-08-21 19:35 METAR KEZF 212335Z AUTO 00000KT 10SM CLR 27/23 A2998 RMK AO2 T02740232 =
2014-08-21 19:15 METAR KEZF 212315Z AUTO 00000KT 10SM CLR 28/23 A2999 RMK AO2 T02780232 =
2014-08-21 18:55 METAR KEZF 212255Z AUTO 00000KT 10SM CLR 28/24 A2998 RMK AO2 T02780235 =
2014-08-21 18:35 METAR KEZF 212235Z AUTO 00000KT 10SM CLR 28/24 A2998 RMK AO2 T02800235 =
2014-08-21 18:15 METAR KEZF 212215Z AUTO 00000KT 10SM SCT110 29/23 A2998 RMK AO2 T02850230 =
2014-08-21 17:55 METAR KEZF 212155Z AUTO 00000KT 10SM SCT110 29/23 A2999 RMK AO2 T02900228 =
2014-08-21 17:15 METAR KEZF 212115Z AUTO 00000KT 10SM CLR 29/23 A2999 RMK AO2 T02920230 =
2014-08-21 16:55 METAR KEZF 212055Z AUTO 23003KT 10SM CLR 30/22 A2999 RMK AO2 T02950224 =
2014-08-21 16:35 METAR KEZF 212035Z AUTO 22004KT 10SM CLR 30/22 A2998 RMK AO2 T02980215 =
2014-08-21 16:15 METAR KEZF 212015Z AUTO 23004KT 10SM SCT044 31/21 A2999 RMK AO2 T03060210 =
2014-08-21 15:55 METAR KEZF 211955Z AUTO 23003KT 10SM SCT046 SCT065 31/21 A2999 RMK AO2 T03130210
                 =
2014-08-21 15:35 METAR KEZF 211935Z AUTO 23004KT 10SM SCT050 31/21 A2999 RMK AO2 T03130205 =
2014-08-21 15:15 METAR KEZF 211915Z AUTO 22003KT 10SM SCT042 SCT065 32/21 A3000 RMK AO2 T03160207
                 =
2014-08-21 14:55 METAR KEZF 211855Z AUTO 00000KT 10SM BKN042 BKN050 BKN065 31/21 A3001 RMK AO2
                 T03120208 =
2014-08-21 14:35 METAR KEZF 211835Z AUTO 00000KT 10SM SCT042 SCT049 BKN065 31/22 A3001 RMK AO2
                 T03090217 =
2014-08-21 14:15 METAR KEZF 211815Z AUTO 23004KT 10SM SCT060 SCT065 31/21 A3002 RMK AO2 T03130211
                 =
2014-08-21 13:55 METAR KEZF 211755Z AUTO 29003KT A3002 RMK AO2 10311 20202 PWINO =

Support USWX by starting your Amazon purchase here.